sensor_id;sensor_type;location;lat;lon;timestamp;P1;durP1;ratioP1;P2;durP2;ratioP2
69417;SDS011;56610;48.872;2.400;2022-12-13T00:00:16;21.23;;;15.63;;
69417;SDS011;56610;48.872;2.400;2022-12-13T00:02:46;18.35;;;14.45;;
69417;SDS011;56610;48.872;2.400;2022-12-13T00:05:11;20.60;;;15.00;;
69417;SDS011;56610;48.872;2.400;2022-12-13T00:07:38;19.98;;;14.48;;
69417;SDS011;56610;48.872;2.400;2022-12-13T00:10:04;17.98;;;13.23;;
69417;SDS011;56610;48.872;2.400;2022-12-13T00:12:30;21.25;;;14.93;;
69417;SDS011;56610;48.872;2.400;2022-12-13T00:14:56;20.25;;;14.35;;
69417;SDS011;56610;48.872;2.400;2022-12-13T00:17:22;17.83;;;13.40;;
69417;SDS011;56610;48.872;2.400;2022-12-13T00:19:47;20.77;;;12.88;;
69417;SDS011;56610;48.872;2.400;2022-12-13T00:22:13;20.27;;;14.30;;
69417;SDS011;56610;48.872;2.400;2022-12-13T00:24:40;17.60;;;12.93;;
69417;SDS011;56610;48.872;2.400;2022-12-13T00:27:06;16.77;;;13.35;;
69417;SDS011;56610;48.872;2.400;2022-12-13T00:29:32;17.05;;;13.18;;
69417;SDS011;56610;48.872;2.400;2022-12-13T00:31:57;16.65;;;12.43;;
69417;SDS011;56610;48.872;2.400;2022-12-13T00:34:23;19.25;;;13.68;;
69417;SDS011;56610;48.872;2.400;2022-12-13T00:36:49;16.35;;;12.55;;
69417;SDS011;56610;48.872;2.400;2022-12-13T00:39:15;15.82;;;12.70;;
69417;SDS011;56610;48.872;2.400;2022-12-13T00:41:40;17.50;;;13.35;;
69417;SDS011;56610;48.872;2.400;2022-12-13T00:44:09;17.23;;;12.00;;
69417;SDS011;56610;48.872;2.400;2022-12-13T00:46:36;15.38;;;11.80;;
69417;SDS011;56610;48.872;2.400;2022-12-13T00:49:15;15.80;;;12.80;;
69417;SDS011;56610;48.872;2.400;2022-12-13T00:51:41;17.73;;;13.02;;
69417;SDS011;56610;48.872;2.400;2022-12-13T00:54:07;14.95;;;11.95;;
69417;SDS011;56610;48.872;2.400;2022-12-13T00:56:33;15.40;;;12.48;;
69417;SDS011;56610;48.872;2.400;2022-12-13T00:59:01;15.30;;;12.10;;
69417;SDS011;56610;48.872;2.400;2022-12-13T01:01:30;15.73;;;12.60;;
69417;SDS011;56610;48.872;2.400;2022-12-13T01:03:58;14.70;;;11.43;;
69417;SDS011;56610;48.872;2.400;2022-12-13T01:06:27;15.40;;;11.80;;
69417;SDS011;56610;48.872;2.400;2022-12-13T01:08:58;14.38;;;11.32;;
69417;SDS011;56610;48.872;2.400;2022-12-13T01:11:44;15.52;;;11.40;;
69417;SDS011;56610;48.872;2.400;2022-12-13T01:14:10;15.27;;;11.95;;
69417;SDS011;56610;48.872;2.400;2022-12-13T01:16:35;15.93;;;11.50;;
69417;SDS011;56610;48.872;2.400;2022-12-13T01:19:02;15.02;;;11.50;;
69417;SDS011;56610;48.872;2.400;2022-12-13T01:21:28;14.20;;;10.30;;
69417;SDS011;56610;48.872;2.400;2022-12-13T01:23:53;13.93;;;10.93;;
69417;SDS011;56610;48.872;2.400;2022-12-13T01:26:23;14.27;;;10.55;;
69417;SDS011;56610;48.872;2.400;2022-12-13T01:28:49;16.02;;;11.55;;
69417;SDS011;56610;48.872;2.400;2022-12-13T01:31:19;15.80;;;11.75;;
69417;SDS011;56610;48.872;2.400;2022-12-13T01:33:45;14.95;;;11.05;;
69417;SDS011;56610;48.872;2.400;2022-12-13T01:36:13;15.00;;;11.82;;
69417;SDS011;56610;48.872;2.400;2022-12-13T01:38:40;12.40;;;10.32;;
69417;SDS011;56610;48.872;2.400;2022-12-13T01:41:06;13.45;;;10.60;;
69417;SDS011;56610;48.872;2.400;2022-12-13T01:46:01;14.25;;;10.18;;
69417;SDS011;56610;48.872;2.400;2022-12-13T01:48:30;14.10;;;10.85;;
69417;SDS011;56610;48.872;2.400;2022-12-13T01:50:59;13.32;;;10.77;;
69417;SDS011;56610;48.872;2.400;2022-12-13T01:53:28;13.90;;;10.82;;
69417;SDS011;56610;48.872;2.400;2022-12-13T01:56:01;13.60;;;9.70;;
69417;SDS011;56610;48.872;2.400;2022-12-13T01:58:30;17.05;;;10.85;;
69417;SDS011;56610;48.872;2.400;2022-12-13T02:00:57;13.10;;;10.95;;
69417;SDS011;56610;48.872;2.400;2022-12-13T02:03:24;15.13;;;10.90;;
69417;SDS011;56610;48.872;2.400;2022-12-13T02:06:12;14.43;;;10.45;;
69417;SDS011;56610;48.872;2.400;2022-12-13T02:08:41;13.13;;;10.13;;
69417;SDS011;56610;48.872;2.400;2022-12-13T02:11:08;12.27;;;9.53;;
69417;SDS011;56610;48.872;2.400;2022-12-13T02:13:35;15.90;;;10.63;;
69417;SDS011;56610;48.872;2.400;2022-12-13T02:27:00;13.23;;;9.70;;
69417;SDS011;56610;48.872;2.400;2022-12-13T02:29:40;13.00;;;9.10;;
69417;SDS011;56610;48.872;2.400;2022-12-13T02:32:33;13.40;;;9.65;;
69417;SDS011;56610;48.872;2.400;2022-12-13T02:38:04;11.30;;;8.88;;
69417;SDS011;56610;48.872;2.400;2022-12-13T02:40:44;14.90;;;10.32;;
69417;SDS011;56610;48.872;2.400;2022-12-13T02:43:17;12.82;;;9.45;;
69417;SDS011;56610;48.872;2.400;2022-12-13T02:45:45;10.95;;;8.82;;
69417;SDS011;56610;48.872;2.400;2022-12-13T02:48:14;11.35;;;9.30;;
69417;SDS011;56610;48.872;2.400;2022-12-13T02:50:43;12.57;;;9.95;;
69417;SDS011;56610;48.872;2.400;2022-12-13T02:53:11;11.67;;;9.83;;
69417;SDS011;56610;48.872;2.400;2022-12-13T02:55:38;13.52;;;9.82;;
69417;SDS011;56610;48.872;2.400;2022-12-13T02:58:04;11.65;;;9.45;;
69417;SDS011;56610;48.872;2.400;2022-12-13T03:00:43;11.13;;;9.25;;
69417;SDS011;56610;48.872;2.400;2022-12-13T03:03:33;12.20;;;9.35;;
69417;SDS011;56610;48.872;2.400;2022-12-13T03:06:14;11.30;;;9.02;;
69417;SDS011;56610;48.872;2.400;2022-12-13T03:11:35;12.68;;;9.30;;
69417;SDS011;56610;48.872;2.400;2022-12-13T03:14:23;12.95;;;9.75;;
69417;SDS011;56610;48.872;2.400;2022-12-13T03:16:50;12.15;;;9.90;;
69417;SDS011;56610;48.872;2.400;2022-12-13T03:19:18;10.80;;;8.73;;
69417;SDS011;56610;48.872;2.400;2022-12-13T03:21:45;12.50;;;9.57;;
69417;SDS011;56610;48.872;2.400;2022-12-13T03:24:15;10.93;;;9.10;;
69417;SDS011;56610;48.872;2.400;2022-12-13T03:26:42;11.82;;;8.98;;
69417;SDS011;56610;48.872;2.400;2022-12-13T03:29:07;10.95;;;8.48;;
69417;SDS011;56610;48.872;2.400;2022-12-13T03:31:33;12.98;;;9.30;;
69417;SDS011;56610;48.872;2.400;2022-12-13T03:33:59;10.68;;;9.18;;
69417;SDS011;56610;48.872;2.400;2022-12-13T03:36:25;10.60;;;8.85;;
69417;SDS011;56610;48.872;2.400;2022-12-13T03:38:51;10.30;;;8.77;;
69417;SDS011;56610;48.872;2.400;2022-12-13T03:41:20;11.77;;;9.10;;
69417;SDS011;56610;48.872;2.400;2022-12-13T03:43:48;11.18;;;8.75;;
69417;SDS011;56610;48.872;2.400;2022-12-13T03:46:14;12.02;;;9.65;;
69417;SDS011;56610;48.872;2.400;2022-12-13T03:48:39;11.98;;;9.25;;
69417;SDS011;56610;48.872;2.400;2022-12-13T03:51:05;13.05;;;9.70;;
69417;SDS011;56610;48.872;2.400;2022-12-13T03:53:51;11.43;;;9.02;;
69417;SDS011;56610;48.872;2.400;2022-12-13T03:56:16;11.30;;;8.85;;
69417;SDS011;56610;48.872;2.400;2022-12-13T03:58:42;11.55;;;9.77;;
69417;SDS011;56610;48.872;2.400;2022-12-13T04:01:09;11.88;;;9.00;;
69417;SDS011;56610;48.872;2.400;2022-12-13T04:03:36;12.10;;;9.23;;
69417;SDS011;56610;48.872;2.400;2022-12-13T04:06:03;12.75;;;9.65;;
69417;SDS011;56610;48.872;2.400;2022-12-13T04:08:29;12.38;;;9.27;;
69417;SDS011;56610;48.872;2.400;2022-12-13T04:10:55;12.00;;;9.35;;
69417;SDS011;56610;48.872;2.400;2022-12-13T04:13:21;12.48;;;9.88;;
69417;SDS011;56610;48.872;2.400;2022-12-13T04:15:59;14.52;;;10.50;;
69417;SDS011;56610;48.872;2.400;2022-12-13T04:18:26;11.10;;;9.27;;
69417;SDS011;56610;48.872;2.400;2022-12-13T04:20:51;11.52;;;9.52;;
69417;SDS011;56610;48.872;2.400;2022-12-13T04:23:17;12.68;;;10.23;;
69417;SDS011;56610;48.872;2.400;2022-12-13T04:25:42;11.63;;;9.23;;
69417;SDS011;56610;48.872;2.400;2022-12-13T04:28:08;13.20;;;10.70;;
69417;SDS011;56610;48.872;2.400;2022-12-13T04:30:34;13.02;;;9.93;;
69417;SDS011;56610;48.872;2.400;2022-12-13T04:33:00;12.10;;;10.10;;
69417;SDS011;56610;48.872;2.400;2022-12-13T04:35:27;12.93;;;9.98;;
69417;SDS011;56610;48.872;2.400;2022-12-13T04:37:53;12.10;;;9.98;;
69417;SDS011;56610;48.872;2.400;2022-12-13T04:40:18;13.18;;;9.55;;
69417;SDS011;56610;48.872;2.400;2022-12-13T04:42:44;12.88;;;10.32;;
69417;SDS011;56610;48.872;2.400;2022-12-13T04:45:13;12.45;;;9.90;;
69417;SDS011;56610;48.872;2.400;2022-12-13T04:47:41;14.18;;;10.40;;
69417;SDS011;56610;48.872;2.400;2022-12-13T04:50:06;11.63;;;8.82;;
69417;SDS011;56610;48.872;2.400;2022-12-13T04:52:32;13.63;;;10.20;;
69417;SDS011;56610;48.872;2.400;2022-12-13T04:54:58;11.85;;;9.80;;
69417;SDS011;56610;48.872;2.400;2022-12-13T04:57:24;11.95;;;10.52;;
69417;SDS011;56610;48.872;2.400;2022-12-13T04:59:49;13.02;;;10.20;;
69417;SDS011;56610;48.872;2.400;2022-12-13T05:02:15;14.13;;;10.63;;
69417;SDS011;56610;48.872;2.400;2022-12-13T05:04:40;14.88;;;10.50;;
69417;SDS011;56610;48.872;2.400;2022-12-13T05:07:26;15.02;;;11.05;;
69417;SDS011;56610;48.872;2.400;2022-12-13T05:09:52;13.38;;;10.38;;
69417;SDS011;56610;48.872;2.400;2022-12-13T05:12:17;13.68;;;10.30;;
69417;SDS011;56610;48.872;2.400;2022-12-13T05:14:43;12.07;;;9.00;;
69417;SDS011;56610;48.872;2.400;2022-12-13T05:17:09;13.55;;;10.50;;
69417;SDS011;56610;48.872;2.400;2022-12-13T05:19:34;11.55;;;9.75;;
69417;SDS011;56610;48.872;2.400;2022-12-13T05:22:00;12.48;;;9.40;;
69417;SDS011;56610;48.872;2.400;2022-12-13T05:24:25;13.43;;;10.48;;
69417;SDS011;56610;48.872;2.400;2022-12-13T05:26:51;14.85;;;11.00;;
69417;SDS011;56610;48.872;2.400;2022-12-13T05:29:16;12.32;;;10.00;;
69417;SDS011;56610;48.872;2.400;2022-12-13T05:31:42;15.35;;;10.95;;
69417;SDS011;56610;48.872;2.400;2022-12-13T05:34:08;14.63;;;10.40;;
69417;SDS011;56610;48.872;2.400;2022-12-13T05:36:33;11.68;;;9.35;;
69417;SDS011;56610;48.872;2.400;2022-12-13T05:38:59;14.07;;;9.95;;
69417;SDS011;56610;48.872;2.400;2022-12-13T05:41:31;13.38;;;9.93;;
69417;SDS011;56610;48.872;2.400;2022-12-13T05:43:58;11.23;;;9.23;;
69417;SDS011;56610;48.872;2.400;2022-12-13T05:46:23;13.23;;;10.45;;
69417;SDS011;56610;48.872;2.400;2022-12-13T05:48:49;12.43;;;9.93;;
69417;SDS011;56610;48.872;2.400;2022-12-13T05:51:15;14.10;;;9.98;;
69417;SDS011;56610;48.872;2.400;2022-12-13T05:53:41;14.40;;;9.95;;
69417;SDS011;56610;48.872;2.400;2022-12-13T05:56:07;13.48;;;9.82;;
69417;SDS011;56610;48.872;2.400;2022-12-13T05:58:34;13.60;;;10.80;;
69417;SDS011;56610;48.872;2.400;2022-12-13T06:01:07;12.40;;;10.00;;
69417;SDS011;56610;48.872;2.400;2022-12-13T06:03:38;11.38;;;9.18;;
69417;SDS011;56610;48.872;2.400;2022-12-13T06:06:05;12.60;;;9.87;;
69417;SDS011;56610;48.872;2.400;2022-12-13T06:08:33;12.98;;;9.95;;
69417;SDS011;56610;48.872;2.400;2022-12-13T06:11:00;11.88;;;9.63;;
69417;SDS011;56610;48.872;2.400;2022-12-13T06:13:27;11.40;;;9.18;;
69417;SDS011;56610;48.872;2.400;2022-12-13T06:15:53;12.35;;;10.43;;
69417;SDS011;56610;48.872;2.400;2022-12-13T06:18:19;13.43;;;9.68;;
69417;SDS011;56610;48.872;2.400;2022-12-13T06:20:44;12.70;;;10.07;;
69417;SDS011;56610;48.872;2.400;2022-12-13T06:23:19;14.60;;;10.45;;
69417;SDS011;56610;48.872;2.400;2022-12-13T06:25:45;13.15;;;10.15;;
69417;SDS011;56610;48.872;2.400;2022-12-13T06:28:10;14.68;;;10.15;;
69417;SDS011;56610;48.872;2.400;2022-12-13T06:30:36;14.98;;;10.00;;
69417;SDS011;56610;48.872;2.400;2022-12-13T06:33:01;13.07;;;10.30;;
69417;SDS011;56610;48.872;2.400;2022-12-13T06:35:27;12.98;;;9.15;;
69417;SDS011;56610;48.872;2.400;2022-12-13T06:37:53;13.75;;;10.57;;
69417;SDS011;56610;48.872;2.400;2022-12-13T06:40:18;13.90;;;10.25;;
69417;SDS011;56610;48.872;2.400;2022-12-13T06:42:44;13.38;;;9.85;;
69417;SDS011;56610;48.872;2.400;2022-12-13T06:45:09;13.50;;;10.93;;
69417;SDS011;56610;48.872;2.400;2022-12-13T06:47:35;12.68;;;9.90;;
69417;SDS011;56610;48.872;2.400;2022-12-13T06:50:01;15.73;;;10.35;;
69417;SDS011;56610;48.872;2.400;2022-12-13T06:52:27;13.27;;;10.32;;
69417;SDS011;56610;48.872;2.400;2022-12-13T06:54:52;12.30;;;10.50;;
69417;SDS011;56610;48.872;2.400;2022-12-13T06:57:18;12.50;;;10.32;;
69417;SDS011;56610;48.872;2.400;2022-12-13T06:59:44;15.02;;;10.48;;
69417;SDS011;56610;48.872;2.400;2022-12-13T07:02:09;12.90;;;10.70;;
69417;SDS011;56610;48.872;2.400;2022-12-13T07:04:35;15.45;;;11.05;;
69417;SDS011;56610;48.872;2.400;2022-12-13T07:07:01;14.73;;;10.95;;
69417;SDS011;56610;48.872;2.400;2022-12-13T07:09:27;13.65;;;11.15;;
69417;SDS011;56610;48.872;2.400;2022-12-13T07:11:56;13.10;;;10.05;;
69417;SDS011;56610;48.872;2.400;2022-12-13T07:14:22;13.50;;;9.75;;
69417;SDS011;56610;48.872;2.400;2022-12-13T07:16:48;14.73;;;10.85;;
69417;SDS011;56610;48.872;2.400;2022-12-13T07:19:14;14.50;;;10.50;;
69417;SDS011;56610;48.872;2.400;2022-12-13T07:21:39;15.18;;;11.13;;
69417;SDS011;56610;48.872;2.400;2022-12-13T07:24:05;15.55;;;11.02;;
69417;SDS011;56610;48.872;2.400;2022-12-13T07:26:31;14.23;;;10.85;;
69417;SDS011;56610;48.872;2.400;2022-12-13T07:28:56;13.60;;;10.63;;
69417;SDS011;56610;48.872;2.400;2022-12-13T07:31:22;12.85;;;10.60;;
69417;SDS011;56610;48.872;2.400;2022-12-13T07:33:48;14.07;;;11.25;;
69417;SDS011;56610;48.872;2.400;2022-12-13T07:36:15;13.50;;;11.02;;
69417;SDS011;56610;48.872;2.400;2022-12-13T07:38:42;14.27;;;9.85;;
69417;SDS011;56610;48.872;2.400;2022-12-13T07:41:08;14.70;;;10.82;;
69417;SDS011;56610;48.872;2.400;2022-12-13T07:43:34;23.13;;;14.27;;
69417;SDS011;56610;48.872;2.400;2022-12-13T07:46:01;14.90;;;11.23;;
69417;SDS011;56610;48.872;2.400;2022-12-13T07:48:29;13.90;;;11.18;;
69417;SDS011;56610;48.872;2.400;2022-12-13T07:50:59;14.05;;;10.90;;
69417;SDS011;56610;48.872;2.400;2022-12-13T07:53:27;16.02;;;11.43;;
69417;SDS011;56610;48.872;2.400;2022-12-13T07:55:52;14.75;;;11.30;;
69417;SDS011;56610;48.872;2.400;2022-12-13T07:58:18;19.15;;;11.77;;
69417;SDS011;56610;48.872;2.400;2022-12-13T08:00:44;14.13;;;11.10;;
69417;SDS011;56610;48.872;2.400;2022-12-13T08:03:10;17.38;;;11.70;;
69417;SDS011;56610;48.872;2.400;2022-12-13T08:05:37;16.25;;;12.20;;
69417;SDS011;56610;48.872;2.400;2022-12-13T08:08:03;17.13;;;12.98;;
69417;SDS011;56610;48.872;2.400;2022-12-13T08:12:56;20.05;;;13.13;;
69417;SDS011;56610;48.872;2.400;2022-12-13T08:15:22;19.90;;;13.90;;
69417;SDS011;56610;48.872;2.400;2022-12-13T08:17:49;19.57;;;12.60;;
69417;SDS011;56610;48.872;2.400;2022-12-13T08:20:15;13.32;;;11.10;;
69417;SDS011;56610;48.872;2.400;2022-12-13T08:22:41;16.35;;;12.32;;
69417;SDS011;56610;48.872;2.400;2022-12-13T08:25:07;19.45;;;12.68;;
69417;SDS011;56610;48.872;2.400;2022-12-13T08:27:38;19.25;;;11.98;;
69417;SDS011;56610;48.872;2.400;2022-12-13T08:30:04;15.10;;;12.27;;
69417;SDS011;56610;48.872;2.400;2022-12-13T08:32:30;17.10;;;12.40;;
69417;SDS011;56610;48.872;2.400;2022-12-13T08:34:55;16.40;;;11.93;;
69417;SDS011;56610;48.872;2.400;2022-12-13T08:37:21;15.10;;;11.88;;
69417;SDS011;56610;48.872;2.400;2022-12-13T08:39:46;13.55;;;11.40;;
69417;SDS011;56610;48.872;2.400;2022-12-13T08:42:13;19.42;;;12.88;;
69417;SDS011;56610;48.872;2.400;2022-12-13T08:44:40;17.02;;;12.35;;
69417;SDS011;56610;48.872;2.400;2022-12-13T08:47:06;17.45;;;12.68;;
69417;SDS011;56610;48.872;2.400;2022-12-13T08:49:32;15.88;;;12.50;;
69417;SDS011;56610;48.872;2.400;2022-12-13T08:51:57;18.23;;;12.02;;
69417;SDS011;56610;48.872;2.400;2022-12-13T08:54:24;20.60;;;13.85;;
69417;SDS011;56610;48.872;2.400;2022-12-13T08:56:50;18.50;;;12.98;;
69417;SDS011;56610;48.872;2.400;2022-12-13T08:59:15;17.65;;;12.40;;
69417;SDS011;56610;48.872;2.400;2022-12-13T09:01:42;19.15;;;13.07;;
69417;SDS011;56610;48.872;2.400;2022-12-13T09:04:08;14.90;;;12.48;;
69417;SDS011;56610;48.872;2.400;2022-12-13T09:06:33;16.48;;;12.75;;
69417;SDS011;56610;48.872;2.400;2022-12-13T09:08:59;17.77;;;11.63;;
69417;SDS011;56610;48.872;2.400;2022-12-13T09:11:25;18.27;;;12.32;;
69417;SDS011;56610;48.872;2.400;2022-12-13T09:13:51;17.60;;;12.57;;
69417;SDS011;56610;48.872;2.400;2022-12-13T09:16:18;17.92;;;13.10;;
69417;SDS011;56610;48.872;2.400;2022-12-13T09:18:48;18.92;;;14.00;;
69417;SDS011;56610;48.872;2.400;2022-12-13T09:21:15;15.45;;;12.27;;
69417;SDS011;56610;48.872;2.400;2022-12-13T09:23:41;20.58;;;13.70;;
69417;SDS011;56610;48.872;2.400;2022-12-13T09:26:09;18.33;;;12.95;;
69417;SDS011;56610;48.872;2.400;2022-12-13T09:28:36;20.05;;;13.40;;
69417;SDS011;56610;48.872;2.400;2022-12-13T09:31:09;17.05;;;13.05;;
69417;SDS011;56610;48.872;2.400;2022-12-13T09:33:37;16.10;;;13.13;;
69417;SDS011;56610;48.872;2.400;2022-12-13T09:36:03;18.38;;;13.25;;
69417;SDS011;56610;48.872;2.400;2022-12-13T09:38:31;19.50;;;12.75;;
69417;SDS011;56610;48.872;2.400;2022-12-13T09:41:03;16.25;;;13.38;;
69417;SDS011;56610;48.872;2.400;2022-12-13T09:43:38;18.00;;;12.85;;
69417;SDS011;56610;48.872;2.400;2022-12-13T09:46:06;16.90;;;13.15;;
69417;SDS011;56610;48.872;2.400;2022-12-13T09:48:35;20.23;;;13.40;;
69417;SDS011;56610;48.872;2.400;2022-12-13T09:51:02;18.55;;;13.43;;
69417;SDS011;56610;48.872;2.400;2022-12-13T09:53:27;15.48;;;12.30;;
69417;SDS011;56610;48.872;2.400;2022-12-13T09:55:53;14.90;;;12.25;;
69417;SDS011;56610;48.872;2.400;2022-12-13T09:58:19;16.65;;;12.40;;
69417;SDS011;56610;48.872;2.400;2022-12-13T10:00:52;16.67;;;12.88;;
69417;SDS011;56610;48.872;2.400;2022-12-13T10:03:20;18.77;;;13.40;;
69417;SDS011;56610;48.872;2.400;2022-12-13T10:05:53;15.93;;;11.55;;
69417;SDS011;56610;48.872;2.400;2022-12-13T10:08:23;16.90;;;11.77;;
69417;SDS011;56610;48.872;2.400;2022-12-13T10:10:57;18.65;;;13.10;;
69417;SDS011;56610;48.872;2.400;2022-12-13T10:13:24;20.02;;;14.13;;
69417;SDS011;56610;48.872;2.400;2022-12-13T10:16:10;18.10;;;13.43;;
69417;SDS011;56610;48.872;2.400;2022-12-13T10:18:38;18.88;;;12.80;;
69417;SDS011;56610;48.872;2.400;2022-12-13T10:24:21;18.30;;;12.65;;
69417;SDS011;56610;48.872;2.400;2022-12-13T10:26:57;17.00;;;11.85;;
69417;SDS011;56610;48.872;2.400;2022-12-13T10:32:31;15.35;;;11.88;;
69417;SDS011;56610;48.872;2.400;2022-12-13T10:35:22;16.60;;;11.90;;
69417;SDS011;56610;48.872;2.400;2022-12-13T10:38:00;14.98;;;12.05;;
69417;SDS011;56610;48.872;2.400;2022-12-13T10:43:18;15.00;;;12.00;;
69417;SDS011;56610;48.872;2.400;2022-12-13T10:48:21;14.05;;;11.25;;
69417;SDS011;56610;48.872;2.400;2022-12-13T10:51:10;15.30;;;12.15;;
69417;SDS011;56610;48.872;2.400;2022-12-13T10:53:44;14.10;;;11.30;;
69417;SDS011;56610;48.872;2.400;2022-12-13T10:56:10;13.52;;;11.65;;
69417;SDS011;56610;48.872;2.400;2022-12-13T10:58:38;13.00;;;11.05;;
69417;SDS011;56610;48.872;2.400;2022-12-13T11:01:10;13.98;;;10.98;;
69417;SDS011;56610;48.872;2.400;2022-12-13T11:03:43;14.63;;;11.52;;
69417;SDS011;56610;48.872;2.400;2022-12-13T11:06:42;13.40;;;11.20;;
69417;SDS011;56610;48.872;2.400;2022-12-13T11:09:28;15.07;;;11.43;;
69417;SDS011;56610;48.872;2.400;2022-12-13T11:11:59;15.48;;;10.98;;
69417;SDS011;56610;48.872;2.400;2022-12-13T11:14:28;13.52;;;10.80;;
69417;SDS011;56610;48.872;2.400;2022-12-13T11:16:58;12.13;;;10.25;;
69417;SDS011;56610;48.872;2.400;2022-12-13T11:19:34;11.50;;;10.25;;
69417;SDS011;56610;48.872;2.400;2022-12-13T11:22:02;12.40;;;10.35;;
69417;SDS011;56610;48.872;2.400;2022-12-13T11:24:33;16.27;;;11.43;;
69417;SDS011;56610;48.872;2.400;2022-12-13T11:27:19;13.90;;;10.80;;
69417;SDS011;56610;48.872;2.400;2022-12-13T11:38:30;13.05;;;10.38;;
69417;SDS011;56610;48.872;2.400;2022-12-13T11:41:24;13.05;;;10.95;;
69417;SDS011;56610;48.872;2.400;2022-12-13T11:43:53;16.17;;;11.75;;
69417;SDS011;56610;48.872;2.400;2022-12-13T11:46:25;17.40;;;12.00;;
69417;SDS011;56610;48.872;2.400;2022-12-13T11:49:00;13.85;;;10.50;;
69417;SDS011;56610;48.872;2.400;2022-12-13T11:51:32;13.40;;;10.85;;
69417;SDS011;56610;48.872;2.400;2022-12-13T11:54:13;12.35;;;9.80;;
69417;SDS011;56610;48.872;2.400;2022-12-13T11:56:42;13.98;;;10.90;;
69417;SDS011;56610;48.872;2.400;2022-12-13T11:59:20;12.60;;;10.40;;
69417;SDS011;56610;48.872;2.400;2022-12-13T12:07:59;13.38;;;9.52;;
69417;SDS011;56610;48.872;2.400;2022-12-13T12:10:40;12.73;;;9.60;;
69417;SDS011;56610;48.872;2.400;2022-12-13T12:13:15;12.60;;;9.88;;
69417;SDS011;56610;48.872;2.400;2022-12-13T12:15:55;11.52;;;9.70;;
69417;SDS011;56610;48.872;2.400;2022-12-13T12:18:32;10.90;;;9.68;;
69417;SDS011;56610;48.872;2.400;2022-12-13T12:23:41;11.55;;;9.38;;
69417;SDS011;56610;48.872;2.400;2022-12-13T12:26:29;11.98;;;8.43;;
69417;SDS011;56610;48.872;2.400;2022-12-13T12:32:09;11.95;;;9.63;;
69417;SDS011;56610;48.872;2.400;2022-12-13T12:40:34;9.93;;;8.75;;
69417;SDS011;56610;48.872;2.400;2022-12-13T12:43:11;10.55;;;8.95;;
69417;SDS011;56610;48.872;2.400;2022-12-13T13:02:40;10.70;;;8.68;;
69417;SDS011;56610;48.872;2.400;2022-12-13T13:10:37;10.75;;;8.73;;
69417;SDS011;56610;48.872;2.400;2022-12-13T13:13:05;10.85;;;8.63;;
69417;SDS011;56610;48.872;2.400;2022-12-13T13:17:56;9.25;;;8.18;;
69417;SDS011;56610;48.872;2.400;2022-12-13T13:20:28;10.10;;;8.70;;
69417;SDS011;56610;48.872;2.400;2022-12-13T13:22:54;10.57;;;9.20;;
69417;SDS011;56610;48.872;2.400;2022-12-13T13:25:23;9.15;;;8.07;;
69417;SDS011;56610;48.872;2.400;2022-12-13T13:33:50;9.45;;;7.97;;
69417;SDS011;56610;48.872;2.400;2022-12-13T13:39:03;10.35;;;8.85;;
69417;SDS011;56610;48.872;2.400;2022-12-13T13:41:38;10.30;;;8.20;;
69417;SDS011;56610;48.872;2.400;2022-12-13T13:58:43;12.23;;;8.73;;
69417;SDS011;56610;48.872;2.400;2022-12-13T14:06:52;10.88;;;8.25;;
69417;SDS011;56610;48.872;2.400;2022-12-13T14:21:12;14.32;;;8.63;;
69417;SDS011;56610;48.872;2.400;2022-12-13T14:26:39;9.63;;;8.07;;
69417;SDS011;56610;48.872;2.400;2022-12-13T14:29:27;19.10;;;8.63;;
69417;SDS011;56610;48.872;2.400;2022-12-13T14:31:56;10.13;;;6.93;;
69417;SDS011;56610;48.872;2.400;2022-12-13T14:34:26;11.80;;;7.90;;
69417;SDS011;56610;48.872;2.400;2022-12-13T14:36:57;13.82;;;7.75;;
69417;SDS011;56610;48.872;2.400;2022-12-13T14:39:25;10.70;;;7.57;;
69417;SDS011;56610;48.872;2.400;2022-12-13T14:41:53;13.38;;;8.77;;
69417;SDS011;56610;48.872;2.400;2022-12-13T14:44:28;11.65;;;7.60;;
69417;SDS011;56610;48.872;2.400;2022-12-13T14:46:56;10.85;;;7.07;;
69417;SDS011;56610;48.872;2.400;2022-12-13T14:49:40;11.25;;;8.60;;
69417;SDS011;56610;48.872;2.400;2022-12-13T14:54:50;11.85;;;7.80;;
69417;SDS011;56610;48.872;2.400;2022-12-13T14:57:23;16.35;;;8.65;;
69417;SDS011;56610;48.872;2.400;2022-12-13T14:59:54;8.60;;;7.43;;
69417;SDS011;56610;48.872;2.400;2022-12-13T15:02:26;9.07;;;7.20;;
69417;SDS011;56610;48.872;2.400;2022-12-13T15:04:57;9.85;;;7.68;;
69417;SDS011;56610;48.872;2.400;2022-12-13T15:07:29;17.38;;;7.85;;
69417;SDS011;56610;48.872;2.400;2022-12-13T15:09:57;10.80;;;7.78;;
69417;SDS011;56610;48.872;2.400;2022-12-13T15:12:45;10.45;;;7.68;;
69417;SDS011;56610;48.872;2.400;2022-12-13T15:15:30;9.63;;;7.32;;
69417;SDS011;56610;48.872;2.400;2022-12-13T15:20:44;9.18;;;7.53;;
69417;SDS011;56610;48.872;2.400;2022-12-13T15:28:31;14.00;;;8.70;;
69417;SDS011;56610;48.872;2.400;2022-12-13T15:30:59;8.90;;;7.70;;
69417;SDS011;56610;48.872;2.400;2022-12-13T15:33:28;9.10;;;7.55;;
69417;SDS011;56610;48.872;2.400;2022-12-13T15:41:21;10.63;;;7.50;;
69417;SDS011;56610;48.872;2.400;2022-12-13T15:43:54;11.02;;;7.95;;
69417;SDS011;56610;48.872;2.400;2022-12-13T15:46:27;12.02;;;7.40;;
69417;SDS011;56610;48.872;2.400;2022-12-13T15:48:55;11.68;;;8.07;;
69417;SDS011;56610;48.872;2.400;2022-12-13T15:51:23;11.98;;;8.10;;
69417;SDS011;56610;48.872;2.400;2022-12-13T15:54:14;12.32;;;7.40;;
69417;SDS011;56610;48.872;2.400;2022-12-13T15:56:58;10.23;;;8.27;;
69417;SDS011;56610;48.872;2.400;2022-12-13T15:59:38;12.75;;;8.88;;
69417;SDS011;56610;48.872;2.400;2022-12-13T16:02:11;13.95;;;8.98;;
69417;SDS011;56610;48.872;2.400;2022-12-13T16:04:42;8.32;;;7.22;;
69417;SDS011;56610;48.872;2.400;2022-12-13T16:07:24;9.57;;;8.20;;
69417;SDS011;56610;48.872;2.400;2022-12-13T16:09:52;9.93;;;8.18;;
69417;SDS011;56610;48.872;2.400;2022-12-13T16:12:19;11.90;;;8.23;;
69417;SDS011;56610;48.872;2.400;2022-12-13T16:18:25;9.48;;;7.90;;
69417;SDS011;56610;48.872;2.400;2022-12-13T16:20:56;11.88;;;8.25;;
69417;SDS011;56610;48.872;2.400;2022-12-13T16:23:22;13.68;;;9.07;;
69417;SDS011;56610;48.872;2.400;2022-12-13T16:25:47;10.20;;;8.13;;
69417;SDS011;56610;48.872;2.400;2022-12-13T16:28:14;10.25;;;8.40;;
69417;SDS011;56610;48.872;2.400;2022-12-13T16:33:21;11.40;;;8.65;;
69417;SDS011;56610;48.872;2.400;2022-12-13T16:35:48;11.05;;;8.25;;
69417;SDS011;56610;48.872;2.400;2022-12-13T16:38:15;11.45;;;8.60;;
69417;SDS011;56610;48.872;2.400;2022-12-13T16:40:42;10.48;;;8.93;;
69417;SDS011;56610;48.872;2.400;2022-12-13T16:43:13;10.27;;;9.00;;
69417;SDS011;56610;48.872;2.400;2022-12-13T16:45:42;11.57;;;9.57;;
69417;SDS011;56610;48.872;2.400;2022-12-13T16:48:11;11.43;;;9.23;;
69417;SDS011;56610;48.872;2.400;2022-12-13T16:50:41;14.30;;;9.75;;
69417;SDS011;56610;48.872;2.400;2022-12-13T16:53:08;13.65;;;10.20;;
69417;SDS011;56610;48.872;2.400;2022-12-13T16:55:33;13.23;;;10.15;;
69417;SDS011;56610;48.872;2.400;2022-12-13T16:58:00;13.98;;;9.75;;
69417;SDS011;56610;48.872;2.400;2022-12-13T17:00:31;14.73;;;10.52;;
69417;SDS011;56610;48.872;2.400;2022-12-13T17:02:58;13.45;;;10.23;;
69417;SDS011;56610;48.872;2.400;2022-12-13T17:05:25;15.63;;;10.00;;
69417;SDS011;56610;48.872;2.400;2022-12-13T17:07:51;12.98;;;9.80;;
69417;SDS011;56610;48.872;2.400;2022-12-13T17:10:17;14.07;;;9.73;;